Flight Track Log - Related Links

Times and Time Zones

All times are in EDT time to prevent confusion due to time zone crossing. See the N677F flight status page for this flight to view local times or setup timezone preferences in your user account.

Time Position Orientation Groundspeed Altitude Reporting Facility
EDT Latitude Longitude Course Direction KTS MPH feet Rate Location/Type
Tue 05:05:27 AM 39.9333 -105.1333 57° Northeast 192 221 7,000  Level Denver TRACON
Tue 05:06:27 AM 39.9667 -105.0667 57° Northeast 252 290 8,600 1,663 Climbing Denver TRACON
Tue 05:07:08 AM 39.9736 -105.0006 82° East 281 323 9,800 1,588 Climbing Denver Center
Tue 05:08:09 AM 39.9786 -104.8814 87° East 327 376 11,300 2,033 Climbing Denver Center
Tue 05:09:09 AM 39.9839 -104.7508 87° East 356 410 13,900 2,380 Climbing Denver Center
Tue 05:10:10 AM 39.9897 -104.6175 87° East 365 420 16,100 2,182 Climbing Denver Center
Tue 05:11:10 AM 39.9947 -104.4783 87° East 382 440 18,300 2,200 Climbing Denver Center
Tue 05:12:10 AM 40.0019 -104.3336 86° East 397 457 20,500 2,083 Climbing Denver Center
Tue 05:13:11 AM 40.0089 -104.1828 87° East 415 478 22,500 2,132 Climbing Denver Center
Tue 05:14:11 AM 40.0131 -104.0256 88° East 427 491 24,800 2,182 Climbing Denver Center
Tue 05:15:12 AM 40.0197 -103.8667 87° East 440 506 26,900 2,033 Climbing Denver Center
Tue 05:16:12 AM 40.0281 -103.7078 86° East 435 501 28,900 2,050 Climbing Denver Center
Tue 05:17:12 AM 40.0353 -103.5469 87° East 441 507 31,000 1,884 Climbing Denver Center
Tue 05:18:13 AM 40.0500 -103.3861 83° East 450 518 32,700 1,934 Climbing Denver Center
Tue 05:19:13 AM 40.0797 -103.2278 76° East 450 518 34,900 1,686 Climbing Denver Center
Tue 05:20:14 AM 40.1067 -103.0714 77° East 444 511 36,100 1,140 Climbing Denver Center
Tue 05:21:14 AM 40.1344 -102.9103 77° East 454 522 37,200 1,050 Climbing Denver Center
Tue 05:22:14 AM 40.1619 -102.7453 78° East 464 534 38,200 1,041 Climbing Denver Center
Tue 05:23:15 AM 40.1894 -102.5750 78° East 472 543 39,300 694 Climbing Denver Center
Tue 05:24:15 AM 40.2178 -102.4122 77° East 479 551 39,600 496 Climbing Denver Center
Tue 05:25:16 AM 40.2642 -102.2256 72° East 488 562 40,300 694 Climbing Denver Center
Tue 05:26:16 AM 40.3783 -102.1778 18° North 471 542 41,000 350 Climbing Denver Center
Tue 05:27:16 AM 40.4736 -102.2639 325° Northwest 439 505 41,000  Level Denver Center
Tue 05:28:17 AM 40.5331 -102.3925 301° West 432 497 41,000  Level Denver Center
Tue 05:29:17 AM 40.6481 -102.4756 331° Northwest 457 526 41,000  Level Denver Center
Tue 05:30:18 AM 40.7692 -102.4847 357° North 457 526 41,000  Level Denver Center
Tue 05:31:18 AM 40.8917 -102.4806 North 458 527 41,000  Level Denver Center
Tue 05:32:18 AM 41.0333 -102.4803 360° North 455 524 41,000  Level Denver Center
Tue 05:33:19 AM 41.1564 -102.4772 North 457 526 41,000  Level Denver Center
Tue 05:34:19 AM 41.2792 -102.4764 360° North 460 529 41,000  Level Denver Center
Tue 05:35:20 AM 41.4033 -102.4742 North 463 533 41,000  Level Denver Center
Tue 05:36:20 AM 41.5461 -102.4719 North 460 529 41,000  Level Denver Center
Tue 05:37:20 AM 41.6714 -102.4714 360° North 466 536 41,000  Level Denver Center
Tue 05:38:21 AM 41.8000 -102.4683 North 470 541 41,000  Level Denver Center
Tue 05:39:21 AM 41.9233 -102.4694 360° North 464 534 41,000  Level Denver Center
Tue 05:40:22 AM 42.0661 -102.4775 358° North 464 534 41,000  Level Denver Center
Tue 05:41:22 AM 42.1919 -102.4633 North 476 548 41,000  Level Denver Center
Tue 05:42:23 AM 42.3167 -102.4617 North 472 543 41,000  Level Denver Center
Tue 05:43:23 AM 42.4625 -102.4594 North 470 541 41,000  Level Denver Center
Tue 05:44:23 AM 42.5850 -102.4575 North 466 536 41,000  Level Denver Center
Tue 05:45:24 AM 42.7086 -102.4550 North 464 534 41,000  Level Denver Center
Tue 05:46:24 AM 42.8544 -102.4533 360° North 467 537 41,000  Level Denver Center
Tue 05:47:24 AM 42.9597 -102.4517 North 470 541 41,000  Level Denver Center
Tue 05:48:25 AM 43.1067 -102.4494 North 473 544 41,000  Level Denver Center
Tue 05:49:25 AM 43.2339 -102.4486 360° North 474 545 41,000  Level Denver Center
Tue 05:50:26 AM 43.3769 -102.4469 360° North 462 532 41,000  Level Denver Center
Tue 05:51:26 AM 43.5014 -102.4453 North 466 536 41,000  Level Denver Center
Tue 05:52:26 AM 43.6272 -102.4439 360° North 470 541 41,000  Level Denver Center
Tue 05:53:27 AM 43.7742 -102.4414 North 472 543 41,000  Level Denver Center
Tue 05:54:27 AM 43.9050 -102.4400 360° North 471 542 41,000  Level Denver Center
Tue 05:55:27 AM 44.0339 -102.4392 360° North 464 534 41,000  Level Denver Center
Tue 05:56:28 AM 44.1622 -102.4367 North 463 533 41,000  Level Denver Center
Tue 05:57:28 AM 44.2928 -102.4367 360° North 464 534 41,000  Level Denver Center
Tue 05:58:28 AM 44.4231 -102.4339 North 468 539 41,000  Level Denver Center
Tue 05:59:29 AM 44.5550 -102.4306 North 471 542 41,000  Level Denver Center
Tue 06:00:29 AM 44.6858 -102.4300 360° North 469 540 41,000  Level Denver Center
Tue 06:01:29 AM 44.8072 -102.4681 347° North 457 526 41,000  Level Denver Center
Tue 06:02:30 AM 44.8297 -102.6292 281° West 441 507 41,000  Level Denver Center
Tue 06:03:30 AM 44.8125 -102.7950 262° West 433 498 41,000  Level Denver Center
Tue 06:04:30 AM 44.7942 -102.9617 261° West 431 496 41,000  Level Denver Center
Tue 06:05:31 AM 44.7817 -103.1311 264° West 434 499 41,000  Level Denver Center
Tue 06:06:31 AM 44.7758 -103.2644 267° West 430 495 41,000  Level Denver Center
Tue 06:07:31 AM 44.7775 -103.4639 271° West 425 489 41,000  Level Denver Center
Tue 06:08:32 AM 44.7803 -103.6289 271° West 431 496 41,000  Level Denver Center
Tue 06:09:32 AM 44.7822 -103.7897 271° West 430 495 41,000  Level Denver Center
Tue 06:10:41 AM 44.7833 -104.0014 270° West 429 494 41,000  Level Salt Lake Center
Tue 06:11:41 AM 44.7856 -104.1597 271° West 426 490 41,000  Level Salt Lake Center
Tue 06:12:41 AM 44.7861 -104.3211 270° West 429 494 41,000  Level Salt Lake Center
Tue 06:13:33 AM 44.7856 -104.4828 270° West 428 493 41,000  Level Denver Center
Tue 06:14:33 AM 44.7861 -104.6475 270° West 429 494 41,000  Level Denver Center
Tue 06:15:34 AM 44.7853 -104.8075 270° West 427 491 41,000  Level Denver Center
Tue 06:16:34 AM 44.7864 -104.9686 271° West 429 494 41,000  Level Denver Center
Tue 06:17:22 AM 44.7847 -105.1025 269° West 430 495 41,000  Level Denver Center
Tue 06:18:23 AM 44.7850 -105.2897 270° West 428 493 41,000  Level Denver Center
Tue 06:19:23 AM 44.7833 -105.4506 269° West 429 494 41,000  Level Denver Center
Tue 06:20:23 AM 44.7817 -105.6133 269° West 433 498 41,000  Level Denver Center
Tue 06:21:24 AM 44.7808 -105.7761 270° West 434 499 41,000  Level Denver Center
Tue 06:22:24 AM 44.7781 -105.9678 269° West 439 505 41,000  Level Denver Center
Tue 06:23:20 AM 44.7761 -106.1319 269° West 440 506 41,000  Level Salt Lake Center
Tue 06:24:20 AM 44.7739 -106.2956 269° West 439 505 41,000  Level Salt Lake Center
Tue 06:25:20 AM 44.7719 -106.4603 269° West 440 506 41,000  Level Salt Lake Center
Tue 06:26:20 AM 44.7694 -106.6236 269° West 437 503 41,000  Level Salt Lake Center
Tue 06:27:21 AM 44.7667 -106.8144 269° West 438 504 41,000  Level Salt Lake Center
Tue 06:28:21 AM 44.7631 -106.9772 268° West 436 502 41,000  Level Salt Lake Center
Tue 06:29:21 AM 44.7589 -107.1375 268° West 431 496 41,000  Level Salt Lake Center
Tue 06:30:21 AM 44.7542 -107.3014 268° West 438 504 41,000  Level Salt Lake Center
Tue 06:31:22 AM 44.7447 -107.4886 266° West 432 497 41,000  Level Salt Lake Center
Tue 06:32:22 AM 44.6511 -107.5686 211° Southwest 443 510 41,000  Level Salt Lake Center
Tue 06:33:22 AM 44.5336 -107.5389 170° South 444 511 41,000  Level Salt Lake Center
Tue 06:34:22 AM 44.4153 -107.5178 173° South 446 513 41,000  Level Salt Lake Center
Tue 06:35:22 AM 44.2767 -107.5164 180° South 445 512 41,000  Level Salt Lake Center
Tue 06:36:23 AM 44.1572 -107.5161 180° South 447 514 41,000  Level Salt Lake Center
Tue 06:37:23 AM 44.0375 -107.5178 181° South 449 517 41,000  Level Salt Lake Center
Tue 06:38:23 AM 43.8975 -107.5197 181° South 451 519 41,000  Level Salt Lake Center
Tue 06:39:23 AM 43.7786 -107.5197 180° South 446 513 41,000  Level Salt Lake Center
Tue 06:40:23 AM 43.6608 -107.5192 180° South 444 511 41,000  Level Salt Lake Center
Tue 06:41:24 AM 43.5439 -107.5189 180° South 441 507 41,000  Level Salt Lake Center
Tue 06:42:24 AM 43.4256 -107.4394 154° Southeast 462 532 41,000  Level Salt Lake Center
Tue 06:43:30 AM 43.4261 -107.2622 90° East 486 559 41,000  Level Denver Center
Tue 06:44:30 AM 43.4503 -107.0558 81° East 489 563 41,000  Level Denver Center
Tue 06:45:30 AM 43.4725 -106.8672 81° East 488 562 41,000  Level Denver Center
Tue 06:46:30 AM 43.4906 -106.6897 82° East 489 563 41,000  Level Denver Center
Tue 06:47:31 AM 43.4969 -106.5103 87° East 490 564 41,000  Level Denver Center
Tue 06:48:31 AM 43.5008 -106.3317 88° East 489 563 41,000  Level Denver Center
Tue 06:49:31 AM 43.5053 -106.1231 88° East 489 563 41,000  Level Denver Center
Tue 06:50:31 AM 43.5075 -105.9461 89° East 483 556 41,000  Level Denver Center
Tue 06:51:32 AM 43.5097 -105.7694 89° East 481 554 41,000  Level Denver Center
Tue 06:52:32 AM 43.5131 -105.5628 89° East 482 555 41,000  Level Denver Center
Tue 06:53:32 AM 43.5161 -105.3825 89° East 487 560 41,000  Level Denver Center
Tue 06:54:32 AM 43.5178 -105.2050 89° East 486 559 41,000  Level Denver Center
Tue 06:55:33 AM 43.5200 -105.0261 89° East 486 559 41,000  Level Denver Center
Tue 06:56:33 AM 43.5217 -104.8189 89° East 484 557 41,000  Level Denver Center
Tue 06:57:33 AM 43.5217 -104.6417 90° East 483 556 41,000  Level Denver Center
Tue 06:58:33 AM 43.5222 -104.4622 90° East 486 559 41,000  Level Denver Center
Tue 06:59:33 AM 43.5231 -104.2822 90° East 488 562 41,000  Level Denver Center
Tue 07:00:34 AM 43.5239 -104.0744 90° East 487 560 41,000  Level Denver Center
Tue 07:01:34 AM 43.5250 -103.8986 89° East 482 555 41,000  Level Denver Center
Tue 07:02:34 AM 43.4783 -103.7406 112° Southeast 484 557 41,000  Level Denver Center
Tue 07:03:34 AM 43.3617 -103.7217 173° South 443 510 41,000  Level Denver Center
Tue 07:04:35 AM 43.2222 -103.7269 182° South 446 513 41,000  Level Denver Center
Tue 07:05:35 AM 43.1014 -103.7325 182° South 450 518 41,000  Level Denver Center
Tue 07:06:35 AM 42.9814 -103.7381 182° South 450 518 41,000  Level Denver Center
Tue 07:07:35 AM 42.8611 -103.7419 181° South 449 517 41,000  Level Denver Center
Tue 07:08:35 AM 42.7206 -103.7497 182° South 451 519 41,000  Level Denver Center
Tue 07:09:36 AM 42.5992 -103.7556 182° South 453 521 41,000  Level Denver Center
Tue 07:10:36 AM 42.4781 -103.7614 182° South 452 520 41,000  Level Denver Center
Tue 07:12:36 AM 42.2183 -103.7728 182° South 451 519 41,000  Level Denver Center
Tue 07:13:37 AM 42.0975 -103.7778 182° South 451 519 41,000  Level Denver Center
Tue 07:14:37 AM 41.9783 -103.7886 184° South 447 514 41,000  Level Denver Center
Tue 07:15:37 AM 41.8614 -103.8153 190° South 445 512 41,000  Level Denver Center
Tue 07:16:37 AM 41.7236 -103.8456 189° South 446 513 41,000  Level Denver Center
Tue 07:17:37 AM 41.6069 -103.8703 189° South 443 510 41,000  Level Denver Center
Tue 07:18:38 AM 41.4886 -103.8969 190° South 447 514 41,000  Level Denver Center
Tue 07:19:38 AM 41.3689 -103.9228 189° South 453 521 41,000  Level Denver Center
Tue 07:20:38 AM 41.2317 -103.9503 189° South 449 517 41,000  Level Denver Center
Tue 07:21:38 AM 41.1144 -103.9753 189° South 446 513 41,000  Level Denver Center
Tue 07:22:38 AM 40.9972 -103.9956 187° South 443 510 41,000  Level Denver Center
Tue 07:23:39 AM 40.8708 -103.9717 172° South 458 527 41,000  Level Denver Center
Tue 07:24:39 AM 40.7453 -103.9447 171° South 459 528 41,000  Level Denver Center
Tue 07:25:39 AM 40.6203 -103.9181 171° South 456 525 41,000  Level Denver Center
Tue 07:26:39 AM 40.4956 -103.8911 171° South 453 521 41,000  Level Denver Center
Tue 07:27:39 AM 40.3706 -103.8639 171° South 454 522 41,000  Level Denver Center
Tue 07:28:40 AM 40.2442 -103.8378 171° South 458 527 41,000  Level Denver Center
Tue 07:29:40 AM 40.1206 -103.8103 170° South 452 520 41,000  Level Denver Center
Tue 07:30:40 AM 39.9961 -103.7808 170° South 453 521 41,000  Level Denver Center
Tue 07:31:40 AM 39.8708 -103.7428 167° South 458 527 41,000  Level Denver Center
Tue 07:32:41 AM 39.7664 -103.8056 205° Southwest 444 511 41,000  Level Denver Center
Tue 07:33:41 AM 39.7850 -103.9519 279° West 437 503 41,000  Level Denver Center
Tue 07:34:41 AM 39.8378 -104.0900 297° West 429 494 41,000  Level Denver Center
Tue 07:35:41 AM 39.8858 -104.2322 294° West 431 496 41,000  Level Denver Center
Tue 07:36:42 AM 39.9358 -104.3728 295° West 431 496 41,000  Level Denver Center
Tue 07:37:42 AM 39.9842 -104.5131 294° West 430 495 41,000  Level Denver Center
Tue 07:38:42 AM 40.0325 -104.6578 294° West 442 509 41,000  Level Denver Center
Tue 07:39:43 AM 40.0892 -104.8286 293° West 435 501 41,000  Level Denver Center
Tue 07:40:43 AM 40.1375 -104.9758 293° West 441 507 41,000  Level Denver Center
Tue 07:41:43 AM 40.1867 -105.1214 294° West 440 506 41,000  Level Denver Center
Tue 07:42:44 AM 40.2342 -105.2678 293° West 437 503 41,000  Level Denver Center
Tue 07:43:44 AM 40.2836 -105.4156 294° West 445 512 41,000  Level Denver Center
Tue 07:44:44 AM 40.3314 -105.5600 293° West 426 490 41,000  Level Denver Center
Tue 07:45:44 AM 40.3808 -105.7072 294° West 439 505 41,000  Level Denver Center
Tue 07:46:45 AM 40.4289 -105.8556 293° West 443 510 41,000  Level Denver Center
Tue 07:47:45 AM 40.4781 -106.0058 293° West 448 516 41,000  Level Denver Center
Tue 07:48:45 AM 40.5278 -106.1606 293° West 460 529 41,000  Level Denver Center
Tue 07:49:46 AM 40.5542 -106.3086 283° West 446 513 41,000  Level Denver Center
Tue 07:50:46 AM 40.5436 -106.4839 266° West 433 498 41,000  Level Denver Center
Tue 07:51:46 AM 40.5233 -106.6197 259° West 440 506 41,000  Level Denver Center
Tue 07:52:47 AM 40.5011 -106.7811 260° West 448 516 41,000  Level Denver Center
Tue 07:53:47 AM 40.4789 -106.9444 260° West 447 514 41,000  Level Denver Center
Tue 07:54:47 AM 40.4531 -107.1219 259° West 444 511 41,000  Level Denver Center
Tue 07:55:48 AM 40.4322 -107.2717 260° West 439 505 41,000  Level Denver Center
Tue 07:56:48 AM 40.4122 -107.4131 260° West 418 481 41,000  Level Denver Center
Tue 07:57:49 AM 40.3975 -107.5881 264° West 431 496 41,000  Level Denver Center
Tue 07:58:49 AM 40.3917 -107.7389 267° West 434 499 41,000  Level Denver Center
Tue 07:59:49 AM 40.3831 -107.8900 266° West 435 501 41,000  Level Denver Center
Tue 08:00:50 AM 40.3733 -108.0689 266° West 439 505 41,000  Level Denver Center
Tue 08:01:50 AM 40.3647 -108.2214 266° West 439 505 41,000  Level Denver Center
Tue 08:02:51 AM 40.3575 -108.3508 266° West 446 513 41,000  Level Denver Center
Tue 08:03:51 AM 40.3447 -108.5592 265° West 448 516 41,000  Level Denver Center
Tue 08:04:21 AM 40.3389 -108.6311 264° West 446 513 41,000  Level Salt Lake Center
Tue 08:05:21 AM 40.3086 -108.7792 255° West 441 507 41,000  Level Salt Lake Center
Tue 08:06:21 AM 40.2292 -108.8917 227° Southwest 446 513 41,000  Level Salt Lake Center
Tue 08:06:52 AM 40.1606 -108.9431 210° Southwest 447 514 41,000  Level Denver Center
Tue 08:07:22 AM 40.1106 -108.9825 211° Southwest 444 511 41,000  Level Salt Lake Center
Tue 08:08:22 AM 40.0133 -109.0622 212° Southwest 436 502 41,000  Level Salt Lake Center
Tue 08:09:23 AM 39.9189 -109.1422 213° Southwest 428 493 41,000  Level Salt Lake Center
Tue 08:10:23 AM 39.8056 -109.2339 212° Southwest 431 496 41,000  Level Salt Lake Center
Tue 08:11:23 AM 39.7078 -109.3133 212° Southwest 434 499 41,000  Level Salt Lake Center
Tue 08:12:24 AM 39.6097 -109.3933 212° Southwest 436 502 41,000  Level Salt Lake Center
Tue 08:13:24 AM 39.4975 -109.4847 212° Southwest 430 495 41,000  Level Salt Lake Center
Tue 08:14:25 AM 39.3978 -109.5653 212° Southwest 439 505 41,000  Level Salt Lake Center
Tue 08:14:57 AM 39.3458 -109.6039 210° Southwest 446 513 41,000  Level Denver Center
Tue 08:15:25 AM 39.2961 -109.6439 212° Southwest 444 511 41,000  Level Salt Lake Center
Tue 08:16:26 AM 39.1797 -109.7400 213° Southwest 444 511 41,000  Level Salt Lake Center
Tue 08:17:27 AM 39.0825 -109.8236 214° Southwest 440 506 41,000  Level Salt Lake Center
Tue 08:18:27 AM 38.9722 -109.8594 194° South 453 521 41,000  Level Salt Lake Center
Tue 08:19:27 AM 38.8931 -109.7144 125° Southeast 478 550 41,000  Level Salt Lake Center
Tue 08:20:28 AM 38.8703 -109.5556 100° East 475 547 41,000  Level Salt Lake Center
Tue 08:21:28 AM 38.8508 -109.3956 99° East 475 547 41,000  Level Salt Lake Center
Tue 08:22:29 AM 38.8258 -109.2056 100° East 485 558 41,000  Level Salt Lake Center
Tue 08:23:29 AM 38.8061 -109.0478 99° East 474 545 41,000  Level Salt Lake Center
Tue 08:24:30 AM 38.7867 -108.8925 99° East 465 535 41,000  Level Salt Lake Center
Tue 08:25:30 AM 38.8044 -108.7081 83° East 475 547 41,000  Level Salt Lake Center
Tue 08:26:31 AM 38.8339 -108.5492 77° East 482 555 41,000  Level Salt Lake Center
Tue 08:27:31 AM 38.8639 -108.3878 77° East 486 559 41,000  Level Salt Lake Center
Tue 08:28:32 AM 38.8992 -108.1986 76° East 489 563 41,000  Level Salt Lake Center
Tue 08:29:32 AM 38.9272 -108.0400 77° East 484 557 41,000  Level Salt Lake Center
Tue 08:30:33 AM 38.9553 -107.8861 77° East 472 543 41,000  Level Salt Lake Center
Tue 08:31:34 AM 38.9869 -107.7056 77° East 467 537 41,000  Level Salt Lake Center
Tue 08:32:34 AM 39.0142 -107.5478 77° East 471 542 41,000  Level Salt Lake Center
Tue 08:33:35 AM 39.0325 -107.3914 81° East 467 537 41,000  Level Salt Lake Center
Tue 08:34:35 AM 39.0333 -107.2028 90° East 473 544 41,000  Level Salt Lake Center
Tue 08:35:36 AM 39.0367 -107.0389 88° East 477 549 41,000  Level Salt Lake Center
Tue 08:36:37 AM 39.0397 -106.8742 89° East 481 554 41,000  Level Salt Lake Center
Tue 08:37:37 AM 39.0442 -106.6833 88° East 480 552 41,000  Level Salt Lake Center
Tue 08:37:52 AM 39.0436 -106.6567 92° East 476 548 41,000  Level Denver Center
Tue 08:38:53 AM 39.0486 -106.4947 88° East 475 547 41,000  Level Denver Center
Tue 08:39:54 AM 39.0542 -106.3025 88° East 480 552 41,000  Level Denver Center
Tue 08:40:55 AM 38.9856 -106.1819 126° Southeast 465 535 41,000  Level Denver Center
Tue 08:41:56 AM 38.8722 -106.2250 196° South 415 478 41,000  Level Denver Center
Tue 08:42:57 AM 38.7756 -106.3181 217° Southwest 428 493 41,000  Level Denver Center
Tue 08:43:58 AM 38.6808 -106.4194 220° Southwest 438 504 41,000  Level Denver Center
Tue 08:44:59 AM 38.5875 -106.5211 220° Southwest 437 503 41,000  Level Denver Center
Tue 08:46:00 AM 38.4942 -106.6214 220° Southwest 435 501 41,000  Level Denver Center
Tue 08:47:01 AM 38.4075 -106.7169 221° Southwest 411 473 41,000  Level Denver Center
Tue 08:48:02 AM 38.3106 -106.8219 220° Southwest 415 478 41,000  Level Denver Center
Tue 08:49:03 AM 38.2233 -106.8967 214° Southwest 419 482 41,000  Level Denver Center
Tue 08:50:04 AM 38.1281 -106.9778 214° Southwest 411 473 41,000  Level Denver Center
Tue 08:51:05 AM 38.0178 -107.0681 213° Southwest 417 480 41,000  Level Denver Center
Tue 08:52:06 AM 37.9225 -107.1472 213° Southwest 424 488 41,000  Level Denver Center
Tue 08:53:07 AM 37.8236 -107.2278 213° Southwest 424 488 41,000  Level Denver Center
Tue 08:54:08 AM 37.7119 -107.3208 213° Southwest 430 495 41,000  Level Denver Center
Tue 08:55:09 AM 37.6161 -107.3994 213° Southwest 430 495 41,000  Level Denver Center
Tue 08:56:10 AM 37.5197 -107.4797 213° Southwest 434 499 41,000  Level Denver Center
Tue 08:57:11 AM 37.4128 -107.5803 217° Southwest 429 494 41,000  Level Denver Center
Tue 08:58:13 AM 37.4217 -107.7228 275° West 448 516 41,000  Level Denver Center
Tue 08:59:14 AM 37.5081 -107.8203 318° Northwest 467 537 41,000  Level Denver Center
Tue 09:00:15 AM 37.5964 -107.9425 312° West 457 526 41,000  Level Denver Center
Tue 09:01:16 AM 37.6136 -108.0936 278° West 457 526 41,000  Level Denver Center
Tue 09:02:17 AM 37.6303 -108.2683 277° West 455 524 41,000  Level Denver Center
Tue 09:03:18 AM 37.6314 -108.4136 271° West 442 509 41,000  Level Denver Center
Tue 09:04:19 AM 37.6344 -108.5603 272° West 440 506 41,000  Level Denver Center
Tue 09:05:21 AM 37.6467 -108.7278 275° West 429 494 41,000  Level Denver Center
Tue 09:06:22 AM 37.6647 -108.8758 279° West 443 510 41,000  Level Denver Center
Tue 09:07:22 AM 37.6831 -108.9931 281° West 435 501 41,000  Level Denver Center
Tue 09:08:24 AM 37.7097 -109.1800 280° West 425 489 41,000  Level Denver Center
Tue 09:09:25 AM 37.7306 -109.3208 281° West 427 491 41,000  Level Denver Center
Tue 09:10:26 AM 37.7547 -109.4944 280° West 447 514 41,000  Level Denver Center
Tue 09:11:27 AM 37.7750 -109.6428 280° West 448 516 41,000  Level Denver Center
Tue 09:12:28 AM 37.7989 -109.8103 280° West 439 505 41,000  Level Denver Center
Tue 09:13:29 AM 37.8194 -109.9558 280° West 439 505 41,000  Level Denver Center
Tue 09:14:30 AM 37.8189 -110.1014 270° West 432 497 41,000  Level Denver Center
Tue 09:15:32 AM 37.7781 -110.2622 252° West 428 493 41,000  Level Denver Center
Tue 09:16:33 AM 37.7394 -110.3947 250° West 421 484 41,000  Level Denver Center
Tue 09:17:46 AM 37.6950 -110.5456 250° West 416 479 41,000  Level Denver Center
Tue 09:18:47 AM 37.6433 -110.7169 249° West 434 499 41,000  Level Denver Center
Tue 09:19:49 AM 37.6025 -110.8522 249° West 418 481 41,000  Level Denver Center
Tue 09:20:50 AM 37.5631 -110.9869 250° West 409 471 41,000  Level Denver Center
Tue 09:21:51 AM 37.5219 -111.1275 250° West 425 489 41,000  Level Denver Center
Tue 09:22:52 AM 37.5097 -111.2383 262° West 422 486 41,000  Level Denver Center
Tue 09:23:53 AM 37.6344 -111.3208 332° Northwest 488 562 41,000 72 Level Denver Center
Tue 09:24:15 AM 37.6894 -111.3125 North 487 560 41,100  Climbing Salt Lake Center
Tue 09:25:16 AM 37.8267 -111.3156 359° North 496 571 41,000 -49 Descending Salt Lake Center
Tue 09:26:17 AM 37.9639 -111.3097 North 496 571 41,000  Level Salt Lake Center
Tue 09:27:19 AM 38.0969 -111.3036 North 485 558 41,000  Level Salt Lake Center
Tue 09:28:20 AM 38.2336 -111.2983 North 490 564 41,000  Level Salt Lake Center
Tue 09:29:21 AM 38.4031 -111.2942 North 505 581 41,000  Level Salt Lake Center
Tue 09:30:22 AM 38.5367 -111.2864 North 489 563 41,000  Level Salt Lake Center
Tue 09:31:23 AM 38.6744 -111.2808 North 494 568 41,000  Level Salt Lake Center
Tue 09:32:24 AM 38.8128 -111.2761 North 498 573 41,000  Level Salt Lake Center
Tue 09:33:25 AM 38.9497 -111.2694 North 495 570 41,000  Level Salt Lake Center
Tue 09:34:26 AM 39.0978 -111.2419 North 489 563 41,000  Level Salt Lake Center
Tue 09:36:29 AM 39.3606 -111.1881 North 496 571 41,000  Level Salt Lake Center
Tue 09:37:31 AM 39.5097 -111.1558 North 486 559 41,000  Level Salt Lake Center
Tue 09:38:31 AM 39.6375 -111.1283 North 485 558 41,000  Level Salt Lake Center
Tue 09:39:33 AM 39.7683 -111.1011 North 494 568 41,000  Level Salt Lake Center
Tue 09:40:34 AM 39.9222 -111.0686 North 499 574 41,000  Level Salt Lake Center
Tue 09:41:35 AM 40.0506 -111.0417 North 490 564 41,000  Level Salt Lake Center
Tue 09:42:37 AM 40.1969 -111.0103 North 483 556 41,000  Level Salt Lake Center
Tue 09:43:38 AM 40.3281 -110.9817 North 480 552 41,000  Level Salt Lake Center
Tue 09:44:39 AM 40.4606 -110.9539 North 482 555 41,000  Level Salt Lake Center
Tue 09:45:41 AM 40.5939 -110.9242 10° North 487 560 41,000  Level Salt Lake Center
Tue 09:46:42 AM 40.7267 -110.8950 North 487 560 41,000  Level Salt Lake Center
Tue 09:47:43 AM 40.8131 -110.7622 49° Northeast 493 567 41,000  Level Salt Lake Center
Tue 09:48:45 AM 40.8536 -110.5714 74° East 490 564 41,000  Level Salt Lake Center
Tue 09:49:46 AM 40.8886 -110.4069 74° East 488 562 41,000  Level Salt Lake Center
Tue 09:50:48 AM 40.9278 -110.2158 75° East 483 556 41,000  Level Salt Lake Center
Tue 09:51:49 AM 40.9650 -110.0544 73° East 481 554 41,000  Level Salt Lake Center
Tue 09:52:50 AM 41.0931 -109.9633 28° Northeast 493 567 41,000  Level Salt Lake Center
Tue 09:53:52 AM 41.1981 -110.0561 326° Northwest 473 544 41,000  Level Salt Lake Center
Tue 09:54:53 AM 41.2825 -110.1753 313° West 464 534 41,000  Level Salt Lake Center
Tue 09:55:56 AM 41.3792 -110.3233 311° West 469 540 41,000  Level Salt Lake Center
Tue 09:56:56 AM 41.4642 -110.4481 312° West 472 543 41,000  Level Salt Lake Center
Tue 09:57:58 AM 41.5492 -110.5756 312° West 477 549 41,000  Level Salt Lake Center
Tue 09:58:59 AM 41.6431 -110.7269 310° West 475 547 41,000  Level Salt Lake Center
Tue 10:00:01 AM 41.7211 -110.8589 308° West 472 543 41,000  Level Salt Lake Center
Tue 10:01:02 AM 41.8011 -111.0100 305° West 471 542 41,000  Level Salt Lake Center
Tue 10:02:04 AM 41.8778 -111.1536 306° West 475 547 41,000  Level Salt Lake Center
Tue 10:03:06 AM 41.9864 -111.2389 330° Northwest 487 560 41,000  Level Salt Lake Center
Tue 10:04:07 AM 42.0922 -111.1394 35° Northeast 495 570 41,000  Level Salt Lake Center
Tue 10:05:09 AM 42.0900 -110.9269 91° East 479 551 41,000  Level Salt Lake Center
Tue 10:06:10 AM 42.0756 -110.7508 96° East 478 550 41,000  Level Salt Lake Center
Tue 10:07:12 AM 42.0608 -110.5803 97° East 480 552 41,000  Level Salt Lake Center
Tue 10:08:13 AM 42.0453 -110.3803 96° East 481 554 41,000  Level Salt Lake Center
Tue 10:09:15 AM 42.0319 -110.2094 96° East 480 552 41,000  Level Salt Lake Center
Tue 10:10:16 AM 42.0192 -110.0375 96° East 482 555 41,000  Level Salt Lake Center
Tue 10:11:18 AM 42.0156 -109.8372 91° East 481 554 41,000  Level Salt Lake Center
Tue 10:12:19 AM 42.0181 -109.6642 89° East 483 556 41,000  Level Salt Lake Center
Tue 10:13:21 AM 42.0200 -109.4664 89° East 476 548 41,000  Level Salt Lake Center
Tue 10:14:23 AM 42.0208 -109.2953 90° East 475 547 41,000  Level Salt Lake Center
Tue 10:15:24 AM 42.0211 -109.1242 90° East 476 548 41,000  Level Salt Lake Center
Tue 10:16:26 AM 42.0219 -108.9244 90° East 476 548 41,000  Level Salt Lake Center
Tue 10:17:27 AM 42.0214 -108.7522 90° East 479 551 41,000  Level Salt Lake Center
Tue 10:18:29 AM 42.0222 -108.5472 90° East 487 560 41,000  Level Salt Lake Center
Tue 10:19:31 AM 42.0272 -108.3750 88° East 484 557 41,000  Level Salt Lake Center
Tue 10:20:32 AM 42.0381 -108.2025 85° East 483 556 41,000  Level Salt Lake Center
Tue 10:21:34 AM 42.0472 -107.9997 86° East 486 559 41,000  Level Salt Lake Center
Tue 10:22:35 AM 42.0556 -107.8297 86° East 480 552 41,000  Level Salt Lake Center
Tue 10:23:37 AM 42.0642 -107.6333 87° East 472 543 41,000  Level Salt Lake Center
Tue 10:23:54 AM 42.0619 -107.6028 96° East 478 550 41,000  Level Denver Center
Tue 10:24:56 AM 42.0550 -107.4036 93° East 477 549 41,000  Level Denver Center
Tue 10:25:58 AM 42.0419 -107.2342 96° East 476 548 41,000  Level Denver Center
Tue 10:26:59 AM 42.0261 -107.0361 96° East 477 549 41,000  Level Denver Center
Tue 10:28:01 AM 42.0169 -106.8675 94° East 474 545 41,000  Level Denver Center
Tue 10:29:03 AM 42.0125 -106.6692 92° East 475 547 41,000  Level Denver Center
Tue 10:30:05 AM 42.0075 -106.4986 92° East 481 554 41,000  Level Denver Center
Tue 10:31:06 AM 42.0028 -106.3544 92° East 484 557 41,000  Level Denver Center

Login

Don't have an account? Register now (free) for customized features, flight alerts, and more!